createdAt,value
2018-06-11T00:00:41.141Z,20.10
2018-06-11T00:03:13.317Z,20.00
2018-06-11T00:05:44.213Z,19.90
2018-06-11T00:08:15.492Z,19.80
2018-06-11T00:10:46.302Z,19.80
2018-06-11T00:13:17.248Z,19.80
2018-06-11T00:15:48.199Z,19.70
2018-06-11T00:18:19.285Z,19.70
2018-06-11T00:20:50.196Z,19.70
2018-06-11T00:23:21.341Z,19.60
2018-06-11T00:25:52.291Z,19.60
2018-06-11T00:28:23.136Z,19.60
2018-06-11T00:30:53.903Z,19.50
2018-06-11T00:33:25.127Z,19.50
2018-06-11T00:35:56.150Z,19.50
2018-06-11T00:38:26.863Z,19.60
2018-06-11T00:40:57.912Z,19.60
2018-06-11T00:43:28.607Z,19.60
2018-06-11T00:45:59.787Z,19.60
2018-06-11T00:48:31.157Z,19.60
2018-06-11T00:51:02.240Z,19.50
2018-06-11T00:53:33.711Z,19.50
2018-06-11T00:56:10.598Z,19.50
2018-06-11T00:58:42.148Z,19.50
2018-06-11T01:01:12.895Z,19.50
2018-06-11T01:03:43.713Z,19.50
2018-06-11T01:06:14.732Z,19.40
2018-06-11T01:08:45.588Z,19.40
2018-06-11T01:11:17.243Z,19.30
2018-06-11T01:13:48.499Z,19.30
2018-06-11T01:16:19.395Z,19.20
2018-06-11T01:18:50.363Z,19.20
2018-06-11T01:21:21.605Z,19.20
2018-06-11T01:23:52.905Z,19.20
2018-06-11T01:26:24.116Z,19.10
2018-06-11T01:28:55.471Z,19.20
2018-06-11T01:31:26.501Z,19.20
2018-06-11T01:33:57.296Z,19.10
2018-06-11T01:36:28.498Z,19.20
2018-06-11T01:38:59.349Z,19.20
2018-06-11T01:41:30.143Z,19.30
2018-06-11T01:44:01.191Z,19.30
2018-06-11T01:46:32.231Z,19.30
2018-06-11T01:49:02.984Z,19.20
2018-06-11T01:51:34.007Z,19.30
2018-06-11T01:54:04.923Z,19.30
2018-06-11T01:56:36.016Z,19.40
2018-06-11T01:59:06.928Z,19.40
2018-06-11T02:01:37.671Z,19.40
2018-06-11T02:04:08.720Z,19.40
2018-06-11T02:06:39.855Z,19.30
2018-06-11T02:09:11.098Z,19.30
2018-06-11T02:11:42.132Z,19.40
2018-06-11T02:14:13.203Z,19.40
2018-06-11T02:16:44.200Z,19.30
2018-06-11T02:19:15.243Z,19.30
2018-06-11T02:21:46.430Z,19.30
2018-06-11T02:24:17.671Z,19.30
2018-06-11T02:26:48.737Z,19.30
2018-06-11T02:29:19.787Z,19.40
2018-06-11T02:31:50.650Z,19.30
2018-06-11T02:34:21.765Z,19.30
2018-06-11T02:36:52.852Z,19.20
2018-06-11T02:39:23.807Z,19.30
2018-06-11T02:41:54.954Z,19.30
2018-06-11T02:44:25.834Z,19.30
2018-06-11T02:46:56.709Z,19.30
2018-06-11T02:49:27.663Z,19.30
2018-06-11T02:51:58.526Z,19.30
2018-06-11T02:54:29.866Z,19.30
2018-06-11T02:57:11.315Z,19.30
2018-06-11T02:59:42.496Z,19.40
2018-06-11T03:02:13.747Z,19.30
2018-06-11T03:04:44.770Z,19.30
2018-06-11T03:07:16.144Z,19.30
2018-06-11T03:09:47.397Z,19.20
2018-06-11T03:12:18.488Z,19.10
2018-06-11T03:14:49.178Z,19.10
2018-06-11T03:17:19.902Z,19.00
2018-06-11T03:19:50.683Z,19.00
2018-06-11T03:22:21.487Z,19.00
2018-06-11T03:24:52.203Z,18.90
2018-06-11T03:27:22.911Z,18.80
2018-06-11T03:29:53.680Z,18.80
2018-06-11T03:32:24.519Z,18.70
2018-06-11T03:34:55.400Z,18.70
2018-06-11T03:37:26.030Z,18.70
2018-06-11T03:39:56.750Z,18.80
2018-06-11T03:42:42.972Z,18.90
2018-06-11T03:45:13.688Z,18.90
2018-06-11T03:47:44.374Z,18.90
2018-06-11T03:50:15.163Z,18.90
2018-06-11T03:55:49.044Z,18.90
2018-06-11T03:58:19.930Z,19.00
2018-06-11T04:00:50.921Z,19.00
2018-06-11T04:03:39.357Z,19.00
2018-06-11T04:06:12.256Z,19.00
2018-06-11T04:08:43.348Z,19.00
2018-06-11T04:11:14.077Z,19.00
2018-06-11T04:13:44.808Z,19.00
2018-06-11T04:16:15.553Z,19.00
2018-06-11T04:18:46.584Z,19.00
2018-06-11T04:21:17.739Z,19.00
2018-06-11T04:23:48.995Z,19.10
2018-06-11T04:26:19.972Z,19.20
2018-06-11T04:28:50.952Z,19.50
2018-06-11T04:31:21.788Z,19.70
2018-06-11T04:33:53.095Z,20.20
2018-06-11T04:38:54.323Z,21.00
2018-06-11T04:41:26.411Z,21.40
2018-06-11T04:43:57.642Z,21.80
2018-06-11T04:46:28.371Z,22.30
2018-06-11T04:48:59.172Z,22.80
2018-06-11T04:51:29.881Z,23.20
2018-06-11T04:54:06.751Z,23.60
2018-06-11T04:56:37.932Z,24.00
2018-06-11T04:59:08.850Z,24.40
2018-06-11T05:01:39.966Z,24.40
2018-06-11T05:04:10.740Z,24.30
2018-06-11T05:06:41.595Z,24.20
2018-06-11T05:09:12.548Z,23.80
2018-06-11T05:14:55.552Z,23.40
2018-06-11T05:17:26.452Z,23.50
2018-06-11T05:19:57.249Z,23.60
2018-06-11T05:22:28.023Z,23.80
2018-06-11T05:24:58.705Z,24.20
2018-06-11T05:27:29.461Z,24.50
2018-06-11T05:30:12.619Z,24.90
2018-06-11T05:32:43.436Z,25.40
2018-06-11T05:38:14.831Z,26.10
2018-06-11T05:40:45.624Z,26.40
2018-06-11T05:43:33.166Z,26.30
2018-06-11T05:46:03.851Z,26.10
2018-06-11T05:48:34.704Z,26.10
2018-06-11T05:51:05.401Z,26.10
2018-06-11T05:56:55.494Z,25.50
2018-06-11T05:59:26.221Z,25.30
2018-06-11T06:01:57.058Z,25.20
2018-06-11T06:04:27.861Z,25.30
2018-06-11T06:06:58.585Z,25.40
2018-06-11T06:09:29.315Z,25.40
2018-06-11T06:12:00.004Z,25.50
2018-06-11T06:14:30.848Z,25.60
2018-06-11T06:17:01.632Z,25.70
2018-06-11T06:19:32.472Z,25.70
2018-06-11T06:22:03.198Z,25.80
2018-06-11T06:24:33.928Z,25.90
2018-06-11T06:27:04.656Z,26.10
2018-06-11T06:29:35.398Z,26.30
2018-06-11T06:32:06.138Z,26.50
2018-06-11T06:34:36.962Z,26.60
2018-06-11T06:37:07.756Z,26.70
2018-06-11T06:39:38.516Z,26.70
2018-06-11T06:42:09.277Z,26.70
2018-06-11T06:44:40.044Z,26.70
2018-06-11T06:47:10.751Z,26.80
2018-06-11T06:49:41.562Z,26.90
2018-06-11T06:52:12.335Z,26.90
2018-06-11T06:54:43.189Z,26.90
2018-06-11T06:57:14.005Z,26.90
2018-06-11T06:59:44.789Z,26.90
2018-06-11T07:04:45.612Z,26.90
2018-06-11T07:07:16.439Z,27.00
2018-06-11T07:09:47.237Z,27.20
2018-06-11T07:12:36.264Z,27.30
2018-06-11T07:15:07.080Z,27.40
2018-06-11T07:17:37.812Z,27.40
2018-06-11T07:20:08.524Z,27.50
2018-06-11T07:22:39.263Z,27.50
2018-06-11T07:25:09.968Z,27.40
2018-06-11T07:27:40.747Z,27.20
2018-06-11T07:30:11.570Z,27.00
2018-06-11T07:32:42.312Z,26.90
2018-06-11T07:35:13.079Z,26.80
2018-06-11T07:37:43.755Z,26.70
2018-06-11T07:40:14.576Z,26.70
2018-06-11T07:42:45.464Z,26.80
2018-06-11T07:45:16.210Z,27.00
2018-06-11T07:47:46.924Z,27.20
2018-06-11T07:50:17.757Z,27.50
2018-06-11T07:52:48.547Z,27.70
2018-06-11T07:55:19.196Z,27.90
2018-06-11T07:57:49.928Z,28.10
2018-06-11T08:00:20.669Z,28.20
2018-06-11T08:02:51.440Z,28.20
2018-06-11T08:05:22.136Z,28.30
2018-06-11T08:07:52.830Z,28.40
2018-06-11T08:10:23.442Z,28.40
2018-06-11T08:12:54.194Z,28.50
2018-06-11T08:15:24.860Z,28.60
2018-06-11T08:17:55.647Z,28.80
2018-06-11T08:20:26.434Z,28.90
2018-06-11T08:22:57.142Z,29.10
2018-06-11T08:25:27.780Z,29.20
2018-06-11T08:27:58.560Z,29.10
2018-06-11T08:30:29.361Z,29.00
2018-06-11T08:33:00.040Z,29.10
2018-06-11T08:38:00.651Z,29.10
2018-06-11T08:40:31.378Z,29.30
2018-06-11T08:43:19.845Z,29.60
2018-06-11T08:45:50.566Z,29.80
2018-06-11T08:48:21.211Z,30.00
2018-06-11T08:50:51.956Z,30.00
2018-06-11T08:53:22.751Z,30.20
2018-06-11T08:55:53.401Z,30.30
2018-06-11T08:58:24.120Z,30.30
2018-06-11T09:00:54.899Z,30.30
2018-06-11T09:03:25.600Z,30.20
2018-06-11T09:05:56.360Z,30.00
2018-06-11T09:08:27.160Z,30.10
2018-06-11T09:10:57.930Z,30.20
2018-06-11T09:13:28.537Z,30.30
2018-06-11T09:15:59.211Z,30.40
2018-06-11T09:18:30.035Z,30.60
2018-06-11T09:21:00.739Z,30.80
2018-06-11T09:23:31.475Z,31.00
2018-06-11T09:26:02.314Z,31.00
2018-06-11T09:28:33.056Z,31.00
2018-06-11T09:31:03.779Z,31.30
2018-06-11T09:33:34.600Z,31.50
2018-06-11T09:36:05.278Z,31.90
2018-06-11T09:38:36.059Z,32.20
2018-06-11T09:41:06.860Z,32.50
2018-06-11T09:43:37.480Z,32.80
2018-06-11T09:46:08.305Z,33.10
2018-06-11T09:48:39.020Z,33.30
2018-06-11T09:51:09.831Z,33.50
2018-06-11T09:53:40.490Z,33.80
2018-06-11T09:56:11.143Z,33.90
2018-06-11T09:58:41.898Z,34.20
2018-06-11T10:01:12.638Z,34.50
2018-06-11T10:03:43.966Z,34.90
2018-06-11T10:06:14.635Z,35.20
2018-06-11T10:08:45.378Z,35.40
2018-06-11T10:11:22.394Z,35.40
2018-06-11T10:13:53.123Z,35.10
2018-06-11T10:16:23.799Z,34.90
2018-06-11T10:18:54.579Z,34.50
2018-06-11T10:21:25.329Z,34.10
2018-06-11T10:23:56.039Z,33.60
2018-06-11T10:26:26.736Z,33.20
2018-06-11T10:28:57.521Z,32.90
2018-06-11T10:31:28.280Z,32.60
2018-06-11T10:33:59.032Z,32.20
2018-06-11T10:36:29.740Z,31.30
2018-06-11T10:39:00.439Z,30.10
2018-06-11T10:41:31.327Z,29.10
2018-06-11T10:44:02.043Z,28.10
2018-06-11T10:46:32.796Z,27.40
2018-06-11T10:49:03.572Z,26.70
2018-06-11T10:51:34.353Z,25.90
2018-06-11T10:54:05.164Z,25.30
2018-06-11T10:56:35.825Z,24.80
2018-06-11T10:59:06.695Z,24.70
2018-06-11T11:01:37.413Z,24.40
2018-06-11T11:04:08.088Z,24.50
2018-06-11T11:06:38.884Z,24.80
2018-06-11T11:09:09.699Z,25.00
2018-06-11T11:11:40.442Z,24.90
2018-06-11T11:14:11.237Z,24.80
2018-06-11T11:16:41.975Z,25.00
2018-06-11T11:19:12.698Z,24.90
2018-06-11T11:21:43.428Z,24.70
2018-06-11T11:24:14.218Z,24.80
2018-06-11T11:26:44.821Z,24.70
2018-06-11T11:29:15.534Z,24.90
2018-06-11T11:31:46.199Z,25.20
2018-06-11T11:34:16.873Z,25.50
2018-06-11T11:36:47.629Z,25.60
2018-06-11T11:39:18.463Z,25.70
2018-06-11T11:41:49.203Z,25.80
2018-06-11T11:44:19.939Z,26.20
2018-06-11T11:46:50.629Z,26.40
2018-06-11T11:49:21.405Z,26.70
2018-06-11T11:51:52.090Z,27.00
2018-06-11T11:54:22.780Z,27.20
2018-06-11T11:56:53.398Z,27.50
2018-06-11T11:59:24.072Z,28.00
2018-06-11T12:01:54.706Z,28.50
2018-06-11T12:06:55.444Z,28.70
2018-06-11T12:09:26.253Z,28.60
2018-06-11T12:11:57.012Z,28.30
2018-06-11T12:14:27.745Z,28.30
2018-06-11T12:16:58.402Z,27.70
2018-06-11T12:19:29.240Z,27.50
2018-06-11T12:21:59.982Z,27.20
2018-06-11T12:24:30.667Z,27.20
2018-06-11T12:27:01.400Z,27.20
2018-06-11T12:29:32.147Z,27.00
2018-06-11T12:32:02.869Z,27.20
2018-06-11T12:34:33.515Z,27.40
2018-06-11T12:37:04.185Z,27.10
2018-06-11T12:39:34.853Z,26.80
2018-06-11T12:42:05.532Z,26.60
2018-06-11T12:44:36.440Z,26.80
2018-06-11T12:47:07.184Z,27.00
2018-06-11T12:49:37.955Z,27.30
2018-06-11T12:52:08.655Z,27.40
2018-06-11T12:54:39.373Z,27.50
2018-06-11T12:57:10.017Z,27.60
2018-06-11T12:59:40.649Z,27.40
2018-06-11T13:02:11.346Z,27.00
2018-06-11T13:04:42.036Z,26.70
2018-06-11T13:07:12.740Z,26.30
2018-06-11T13:09:43.500Z,25.90
2018-06-11T13:12:14.180Z,25.60
2018-06-11T13:14:44.941Z,25.40
2018-06-11T13:17:15.548Z,25.30
2018-06-11T13:19:46.355Z,25.20
2018-06-11T13:22:17.134Z,25.00
2018-06-11T13:24:47.856Z,24.80
2018-06-11T13:27:18.551Z,24.60
2018-06-11T13:29:49.295Z,24.60
2018-06-11T13:32:20.053Z,24.50
2018-06-11T13:34:50.755Z,24.40
2018-06-11T13:37:21.534Z,24.30
2018-06-11T13:39:52.272Z,24.20
2018-06-11T13:42:23.135Z,24.00
2018-06-11T13:44:53.936Z,24.00
2018-06-11T13:47:24.788Z,23.90
2018-06-11T13:49:55.562Z,23.80
2018-06-11T13:52:26.318Z,23.80
2018-06-11T13:54:57.068Z,23.80
2018-06-11T13:57:27.769Z,23.70
2018-06-11T13:59:58.385Z,23.70
2018-06-11T14:02:29.098Z,23.60
2018-06-11T14:04:59.883Z,23.60
2018-06-11T14:07:30.286Z,23.60
2018-06-11T14:10:01.033Z,23.50
2018-06-11T14:12:32.115Z,23.40
2018-06-11T14:15:03.403Z,23.40
2018-06-11T14:17:38.330Z,23.40
2018-06-11T14:20:09.174Z,23.40
2018-06-11T14:22:39.824Z,23.50
2018-06-11T14:25:10.698Z,23.10
2018-06-11T14:27:41.432Z,22.50
2018-06-11T14:30:12.080Z,21.90
2018-06-11T14:32:42.867Z,21.50
2018-06-11T14:35:13.597Z,21.30
2018-06-11T14:37:44.425Z,21.30
2018-06-11T14:40:15.252Z,21.30
2018-06-11T14:42:45.957Z,21.20
2018-06-11T14:45:16.720Z,21.10
2018-06-11T14:47:47.442Z,21.00
2018-06-11T14:50:18.167Z,20.90
2018-06-11T14:52:49.040Z,20.90
2018-06-11T14:55:19.810Z,20.90
2018-06-11T14:57:50.493Z,21.00
2018-06-11T15:00:21.341Z,21.20
2018-06-11T15:02:52.172Z,21.20
2018-06-11T15:05:23.007Z,21.20
2018-06-11T15:07:53.735Z,21.20
2018-06-11T15:10:24.519Z,21.00
2018-06-11T15:12:55.232Z,20.90
2018-06-11T15:15:25.992Z,20.70
2018-06-11T15:17:56.720Z,20.60
2018-06-11T15:20:27.462Z,20.50
2018-06-11T15:22:58.304Z,20.30
2018-06-11T15:25:28.996Z,20.20
2018-06-11T15:27:59.591Z,20.10
2018-06-11T15:30:30.300Z,20.20
2018-06-11T15:33:01.044Z,20.20
2018-06-11T15:35:31.837Z,20.20
2018-06-11T15:38:02.598Z,20.20
2018-06-11T15:40:33.379Z,20.30
2018-06-11T15:43:04.248Z,20.30
2018-06-11T15:45:35.024Z,20.30
2018-06-11T15:48:05.788Z,20.20
2018-06-11T15:50:36.532Z,20.20
2018-06-11T15:53:07.338Z,20.20
2018-06-11T15:55:38.127Z,20.20
2018-06-11T15:58:08.919Z,20.20
2018-06-11T16:04:04.878Z,20.30
2018-06-11T16:06:35.543Z,20.30
2018-06-11T16:09:08.188Z,20.30
2018-06-11T16:11:38.928Z,20.30
2018-06-11T16:14:09.615Z,20.30
2018-06-11T16:16:40.388Z,20.30
2018-06-11T16:19:10.988Z,20.30
2018-06-11T16:21:41.747Z,20.30
2018-06-11T16:24:12.527Z,20.20
2018-06-11T16:26:43.189Z,20.10
2018-06-11T16:29:13.937Z,20.10
2018-06-11T16:31:44.551Z,20.10
2018-06-11T16:34:15.403Z,20.10
2018-06-11T16:36:46.234Z,20.10
2018-06-11T16:39:17.056Z,20.10
2018-06-11T16:41:47.707Z,20.20
2018-06-11T16:44:18.416Z,20.20
2018-06-11T16:46:49.190Z,20.30
2018-06-11T16:51:49.944Z,20.30
2018-06-11T16:54:20.655Z,20.20
2018-06-11T16:56:51.325Z,20.20
2018-06-11T16:59:22.030Z,20.20
2018-06-11T17:01:52.739Z,20.20
2018-06-11T17:04:23.507Z,20.20
2018-06-11T17:06:54.307Z,20.10
2018-06-11T17:09:25.058Z,20.20
2018-06-11T17:11:55.921Z,20.20
2018-06-11T17:14:26.677Z,20.20
2018-06-11T17:17:14.995Z,20.20
2018-06-11T17:19:45.798Z,20.20
2018-06-11T17:22:16.518Z,20.20
2018-06-11T17:24:47.184Z,20.10
2018-06-11T17:27:17.909Z,20.10
2018-06-11T17:29:48.583Z,20.10
2018-06-11T17:32:19.437Z,20.10
2018-06-11T17:34:50.213Z,20.10
2018-06-11T17:37:20.876Z,20.10
2018-06-11T17:39:51.511Z,20.00
2018-06-11T17:42:22.196Z,20.00
2018-06-11T17:44:52.969Z,20.00
2018-06-11T17:47:23.659Z,20.00
2018-06-11T17:49:54.305Z,20.00
2018-06-11T17:52:25.057Z,19.90
2018-06-11T17:54:55.893Z,19.90
2018-06-11T17:57:26.708Z,19.80
2018-06-11T17:59:57.483Z,19.80
2018-06-11T18:02:28.236Z,19.80
2018-06-11T18:04:58.890Z,19.80
2018-06-11T18:07:29.658Z,19.80
2018-06-11T18:10:00.402Z,19.80
2018-06-11T18:15:27.260Z,19.90
2018-06-11T18:17:58.035Z,19.80
2018-06-11T18:20:29.396Z,19.80
2018-06-11T18:23:00.238Z,19.80
2018-06-11T18:25:54.687Z,19.70
2018-06-11T18:28:47.772Z,19.70
2018-06-11T18:34:31.240Z,19.70
2018-06-11T18:37:01.955Z,19.80
2018-06-11T18:39:32.715Z,19.80
2018-06-11T18:42:03.576Z,19.80
2018-06-11T18:44:34.513Z,19.80
2018-06-11T18:47:16.194Z,19.80
2018-06-11T18:49:47.060Z,19.90
2018-06-11T18:52:18.146Z,19.90
2018-06-11T18:54:49.044Z,19.90
2018-06-11T19:00:38.896Z,19.90
2018-06-11T19:03:09.535Z,19.90
2018-06-11T19:05:40.300Z,19.90
2018-06-11T19:11:09.939Z,19.80
2018-06-11T19:13:40.718Z,19.80
2018-06-11T19:16:11.566Z,19.70
2018-06-11T19:18:46.194Z,19.70
2018-06-11T19:21:16.917Z,19.60
2018-06-11T19:23:47.691Z,19.60
2018-06-11T19:26:18.499Z,19.50
2018-06-11T19:28:50.084Z,19.40
2018-06-11T19:31:21.798Z,19.40
2018-06-11T19:33:52.544Z,19.30
2018-06-11T19:36:24.199Z,19.30
2018-06-11T19:38:55.059Z,19.20
2018-06-11T19:41:25.162Z,19.20
2018-06-11T19:43:55.285Z,19.10
2018-06-11T19:46:25.395Z,19.10
2018-06-11T19:48:55.488Z,19.10
2018-06-11T19:51:25.602Z,19.10
2018-06-11T19:53:55.752Z,19.10
2018-06-11T19:56:26.492Z,19.10
2018-06-11T19:58:57.341Z,19.00
2018-06-11T20:01:28.169Z,19.00
2018-06-11T20:04:00.867Z,19.00
2018-06-11T20:06:31.721Z,18.90
2018-06-11T20:09:02.459Z,18.90
2018-06-11T20:11:33.259Z,18.80
2018-06-11T20:14:04.027Z,18.80
2018-06-11T20:16:34.982Z,18.70
2018-06-11T20:19:10.887Z,18.70
2018-06-11T20:21:41.642Z,18.50
2018-06-11T20:24:12.323Z,18.60
2018-06-11T20:26:43.034Z,18.50
2018-06-11T20:29:13.752Z,18.50
2018-06-11T20:31:44.453Z,18.50
2018-06-11T20:34:15.179Z,18.50
2018-06-11T20:36:46.152Z,18.50
2018-06-11T20:39:16.896Z,18.60
2018-06-11T20:41:47.535Z,18.60
2018-06-11T20:46:48.651Z,18.60
2018-06-11T20:49:19.706Z,18.60
2018-06-11T20:51:50.616Z,18.50
2018-06-11T20:54:21.652Z,18.50
2018-06-11T20:56:52.564Z,18.50
2018-06-11T20:59:23.231Z,18.50
2018-06-11T21:01:54.202Z,18.50
2018-06-11T21:04:25.121Z,18.50
2018-06-11T21:06:55.851Z,18.50
2018-06-11T21:09:26.803Z,18.40
2018-06-11T21:11:58.048Z,18.50
2018-06-11T21:14:29.480Z,18.40
2018-06-11T21:17:00.498Z,18.50
2018-06-11T21:19:31.390Z,18.50
2018-06-11T21:22:02.453Z,18.50
2018-06-11T21:24:33.352Z,18.50
2018-06-11T21:27:04.420Z,18.50
2018-06-11T21:29:35.462Z,18.60
2018-06-11T21:32:06.416Z,18.60
2018-06-11T21:34:37.543Z,18.60
2018-06-11T21:37:08.336Z,18.60
2018-06-11T21:39:39.124Z,18.70
2018-06-11T21:42:10.048Z,18.60
2018-06-11T21:44:41.044Z,18.60
2018-06-11T21:50:31.835Z,18.60
2018-06-11T21:53:02.475Z,18.70
2018-06-11T21:55:33.280Z,18.70
2018-06-11T21:58:25.582Z,18.70
2018-06-11T22:00:56.874Z,18.60
2018-06-11T22:03:27.616Z,18.60
2018-06-11T22:05:58.237Z,18.50
2018-06-11T22:10:59.344Z,18.40
2018-06-11T22:13:30.512Z,18.40
2018-06-11T22:16:12.556Z,18.30
2018-06-11T22:18:43.268Z,18.30
2018-06-11T22:21:14.242Z,18.20
2018-06-11T22:23:45.082Z,18.20
2018-06-11T22:26:15.795Z,18.20
2018-06-11T22:28:46.804Z,18.30
2018-06-11T22:31:17.947Z,18.30
2018-06-11T22:33:48.776Z,18.20
2018-06-11T22:36:19.526Z,18.20
2018-06-11T22:38:55.524Z,18.20
2018-06-11T22:41:26.490Z,18.10
2018-06-11T22:43:57.647Z,18.10
2018-06-11T22:46:28.516Z,18.10
2018-06-11T22:48:59.464Z,18.00
2018-06-11T22:51:30.428Z,18.10
2018-06-11T22:54:01.154Z,18.10
2018-06-11T22:56:31.875Z,18.10
2018-06-11T22:59:02.649Z,18.20
2018-06-11T23:01:33.609Z,18.20
2018-06-11T23:04:04.646Z,18.20
2018-06-11T23:06:35.852Z,18.20
2018-06-11T23:09:08.362Z,18.30
2018-06-11T23:11:39.087Z,18.30
2018-06-11T23:14:09.951Z,18.20
2018-06-11T23:16:41.480Z,18.30
2018-06-11T23:19:12.352Z,18.30
2018-06-11T23:21:43.568Z,18.30
2018-06-11T23:24:14.393Z,18.20
2018-06-11T23:26:45.056Z,18.30
2018-06-11T23:29:16.034Z,18.30
2018-06-11T23:31:47.216Z,18.30
2018-06-11T23:34:18.343Z,18.30
2018-06-11T23:36:49.224Z,18.40
2018-06-11T23:41:50.301Z,18.30
2018-06-11T23:44:21.019Z,18.30
2018-06-11T23:46:51.754Z,18.30
2018-06-11T23:49:22.635Z,18.30
2018-06-11T23:51:53.431Z,18.30
2018-06-11T23:54:41.941Z,18.40
2018-06-11T23:57:12.785Z,18.30
2018-06-11T23:59:43.707Z,18.30
